createdAt,value
2018-04-23T00:03:37.576Z,24.10
2018-04-23T00:13:40.764Z,24.10
2018-04-23T00:23:43.936Z,24.10
2018-04-23T00:33:47.179Z,24.10
2018-04-23T00:43:50.396Z,24.10
2018-04-23T00:53:53.587Z,24.00
2018-04-23T01:03:56.800Z,24.00
2018-04-23T01:14:00.008Z,24.00
2018-04-23T01:24:03.219Z,24.00
2018-04-23T01:34:06.406Z,24.00
2018-04-23T01:44:09.600Z,23.90
2018-04-23T01:54:12.949Z,23.90
2018-04-23T02:04:16.191Z,23.90
2018-04-23T02:14:19.365Z,23.90
2018-04-23T02:24:23.334Z,23.90
2018-04-23T02:34:26.527Z,23.90
2018-04-23T02:44:29.783Z,23.90
2018-04-23T02:54:33.015Z,23.80
2018-04-23T03:04:36.268Z,23.80
2018-04-23T03:14:39.445Z,23.80
2018-04-23T03:24:42.627Z,23.80
2018-04-23T03:34:45.835Z,23.80
2018-04-23T03:44:49.011Z,23.80
2018-04-23T03:54:52.220Z,23.80
2018-04-23T04:04:55.417Z,23.70
2018-04-23T04:15:16.611Z,23.70
2018-04-23T04:25:20.581Z,23.60
2018-04-23T04:35:23.797Z,23.60
2018-04-23T04:45:28.059Z,23.60
2018-04-23T04:55:31.482Z,23.50
2018-04-23T05:05:34.699Z,23.60
2018-04-23T05:15:38.000Z,23.60
2018-04-23T05:25:42.601Z,23.60
2018-04-23T05:35:46.617Z,23.70
2018-04-23T05:45:49.864Z,23.70
2018-04-23T05:55:53.069Z,23.90
2018-04-23T06:05:56.247Z,24.10
2018-04-23T06:15:59.439Z,24.30
2018-04-23T06:26:02.625Z,24.20
2018-04-23T06:36:06.510Z,24.10
2018-04-23T06:46:10.495Z,24.10
2018-04-23T06:56:14.485Z,24.10
2018-04-23T07:06:17.776Z,24.10
2018-04-23T07:16:21.017Z,24.00
2018-04-23T07:26:24.228Z,23.90
2018-04-23T07:36:27.458Z,23.90
2018-04-23T07:46:30.953Z,24.00
2018-04-23T07:56:35.117Z,23.90
2018-04-23T08:06:39.090Z,24.00
2018-04-23T08:16:43.044Z,24.10
2018-04-23T08:26:46.992Z,24.10
2018-04-23T08:36:50.704Z,24.10
2018-04-23T08:46:54.668Z,24.20
2018-04-23T08:56:57.845Z,24.20
2018-04-23T09:07:01.107Z,24.20
2018-04-23T09:17:04.281Z,24.30
2018-04-23T09:27:07.590Z,24.30
2018-04-23T09:37:10.777Z,24.30
2018-04-23T09:47:14.009Z,24.30
2018-04-23T09:57:18.043Z,24.40
2018-04-23T10:07:22.016Z,24.50
2018-04-23T10:17:25.241Z,24.40
2018-04-23T10:27:28.410Z,24.50
2018-04-23T10:37:32.531Z,24.60
2018-04-23T10:47:35.796Z,24.50
2018-04-23T10:57:39.835Z,24.60
2018-04-23T11:07:43.052Z,24.60
2018-04-23T11:17:46.240Z,24.70
2018-04-23T11:27:52.003Z,24.80
2018-04-23T11:38:08.488Z,24.70
2018-04-23T11:48:11.680Z,24.70
2018-04-23T11:58:14.851Z,24.80
2018-04-23T12:08:18.041Z,24.80
2018-04-23T12:18:21.990Z,24.70
2018-04-23T12:28:26.000Z,24.70
2018-04-23T12:38:29.199Z,24.70
2018-04-23T12:48:33.970Z,24.80
2018-04-23T12:58:37.944Z,24.80
2018-04-23T13:08:41.996Z,24.80
2018-04-23T13:18:45.165Z,24.80
2018-04-23T13:28:49.124Z,25.10
2018-04-23T13:38:53.100Z,25.10
2018-04-23T13:48:56.272Z,25.10
2018-04-23T13:58:59.479Z,25.10
2018-04-23T14:09:02.663Z,25.10
2018-04-23T14:19:05.869Z,25.20
2018-04-23T14:29:09.127Z,25.20
2018-04-23T14:39:12.426Z,25.10
2018-04-23T14:49:17.173Z,25.10
2018-04-23T14:59:20.488Z,25.10
2018-04-23T15:09:24.442Z,25.30
2018-04-23T15:19:28.579Z,25.20
2018-04-23T15:29:31.755Z,25.30
2018-04-23T15:39:34.957Z,25.30
2018-04-23T15:49:38.886Z,25.30
2018-04-23T15:59:42.160Z,25.20
2018-04-23T16:09:46.876Z,25.30
2018-04-23T16:19:50.077Z,25.30
2018-04-23T16:29:53.271Z,25.40
2018-04-23T16:39:56.820Z,25.40
2018-04-23T16:50:01.019Z,25.40
2018-04-23T17:00:04.443Z,25.40
2018-04-23T17:10:07.729Z,25.30
2018-04-23T17:20:10.912Z,25.20
2018-04-23T17:30:14.114Z,25.20
2018-04-23T17:40:18.861Z,25.30
2018-04-23T17:50:22.088Z,25.30
2018-04-23T18:00:25.689Z,25.40
2018-04-23T18:10:28.946Z,25.40
2018-04-23T18:20:32.412Z,25.50
2018-04-23T18:30:36.451Z,25.60
2018-04-23T18:40:39.914Z,25.50
2018-04-23T18:50:44.265Z,25.50
2018-04-23T19:00:48.343Z,25.50
2018-04-23T19:10:52.307Z,25.40
2018-04-23T19:20:55.535Z,25.40
2018-04-23T19:30:58.809Z,25.50
2018-04-23T19:41:02.541Z,25.40
2018-04-23T19:51:05.849Z,25.40
2018-04-23T20:01:09.061Z,25.30
2018-04-23T20:11:13.021Z,25.30
2018-04-23T20:21:16.519Z,25.20
2018-04-23T20:31:21.812Z,25.20
2018-04-23T20:41:26.945Z,25.20
2018-04-23T20:51:31.328Z,25.20
2018-04-23T21:01:34.747Z,25.20
2018-04-23T21:11:38.454Z,25.20
2018-04-23T21:21:41.632Z,25.10
2018-04-23T21:31:44.831Z,25.10
2018-04-23T21:41:48.015Z,25.10
2018-04-23T21:51:51.973Z,25.10
2018-04-23T22:01:56.005Z,25.00
2018-04-23T22:11:59.572Z,25.00
2018-04-23T22:22:04.324Z,24.80
2018-04-23T22:32:07.576Z,24.80
2018-04-23T22:42:10.760Z,24.80
2018-04-23T22:52:13.969Z,24.80
2018-04-23T23:02:18.690Z,24.70
2018-04-23T23:12:21.885Z,24.70
2018-04-23T23:22:25.068Z,24.70
2018-04-23T23:32:28.244Z,24.60
2018-04-23T23:42:31.516Z,24.60
2018-04-23T23:52:34.691Z,24.60
